Terminal Aerodrome Forecast
Issued by NWS Buffalo, NY

Home | Current Version | Previous Version | Text Only | Print | Product List | Glossary On
Versions: 1 2 3 4 5 6 7 8 9 10 11 12 13 14 15 16 17 18 19 20 21 22 23 24 25
000
FTUS41 KBUF 201100
TAFART
TAF
KART 201126Z 2012/2112 00000KT P6SM SCT030
     FM202100 03004KT P6SM BKN110
     FM210000 VRB03KT P6SM BKN015
     FM210600 VRB03KT P6SM BKN012=

USA.gov is the U.S. government's official web portal to all federal, state and local government web resources and services.